sensor_id;sensor_type;location;lat;lon;timestamp;P1;durP1;ratioP1;P2;durP2;ratioP2
44434;SDS011;30138;20.964;105.830;2023-03-11T00:01:49;125.93;;;82.68;;
44434;SDS011;30138;20.964;105.830;2023-03-11T00:06:58;126.72;;;83.50;;
44434;SDS011;30138;20.964;105.830;2023-03-11T00:12:06;125.60;;;81.97;;
44434;SDS011;30138;20.964;105.830;2023-03-11T00:17:13;127.00;;;82.05;;
44434;SDS011;30138;20.964;105.830;2023-03-11T00:22:22;132.68;;;81.22;;
44434;SDS011;30138;20.964;105.830;2023-03-11T00:27:30;132.77;;;83.70;;
44434;SDS011;30138;20.964;105.830;2023-03-11T00:32:37;127.40;;;80.75;;
44434;SDS011;30138;20.964;105.830;2023-03-11T00:37:46;128.63;;;81.60;;
44434;SDS011;30138;20.964;105.830;2023-03-11T00:42:57;129.82;;;83.43;;
44434;SDS011;30138;20.964;105.830;2023-03-11T00:48:04;130.07;;;80.55;;
44434;SDS011;30138;20.964;105.830;2023-03-11T00:53:14;126.07;;;80.00;;
44434;SDS011;30138;20.964;105.830;2023-03-11T00:58:21;122.05;;;80.72;;
44434;SDS011;30138;20.964;105.830;2023-03-11T01:03:41;125.97;;;80.03;;
44434;SDS011;30138;20.964;105.830;2023-03-11T01:16:35;138.00;;;80.55;;
44434;SDS011;30138;20.964;105.830;2023-03-11T01:21:43;130.45;;;78.03;;
44434;SDS011;30138;20.964;105.830;2023-03-11T01:26:50;129.50;;;79.70;;
44434;SDS011;30138;20.964;105.830;2023-03-11T01:32:00;130.85;;;80.78;;
44434;SDS011;30138;20.964;105.830;2023-03-11T01:37:07;134.23;;;80.22;;
44434;SDS011;30138;20.964;105.830;2023-03-11T01:42:15;135.88;;;77.63;;
44434;SDS011;30138;20.964;105.830;2023-03-11T01:47:37;140.60;;;78.97;;
44434;SDS011;30138;20.964;105.830;2023-03-11T01:52:45;131.57;;;79.03;;
44434;SDS011;30138;20.964;105.830;2023-03-11T01:57:53;138.35;;;78.65;;
44434;SDS011;30138;20.964;105.830;2023-03-11T02:03:05;130.13;;;80.60;;
44434;SDS011;30138;20.964;105.830;2023-03-11T02:08:15;128.98;;;77.13;;
44434;SDS011;30138;20.964;105.830;2023-03-11T02:13:22;131.18;;;75.75;;
44434;SDS011;30138;20.964;105.830;2023-03-11T02:18:31;127.30;;;77.10;;
44434;SDS011;30138;20.964;105.830;2023-03-11T02:23:41;132.55;;;76.22;;
44434;SDS011;30138;20.964;105.830;2023-03-11T02:28:59;129.20;;;77.65;;
44434;SDS011;30138;20.964;105.830;2023-03-11T02:34:10;130.88;;;74.30;;
44434;SDS011;30138;20.964;105.830;2023-03-11T02:39:29;129.48;;;77.55;;
44434;SDS011;30138;20.964;105.830;2023-03-11T02:44:39;134.85;;;76.50;;
44434;SDS011;30138;20.964;105.830;2023-03-11T02:49:50;134.55;;;75.25;;
44434;SDS011;30138;20.964;105.830;2023-03-11T02:54:58;124.75;;;74.50;;
44434;SDS011;30138;20.964;105.830;2023-03-11T03:00:08;127.30;;;74.65;;
44434;SDS011;30138;20.964;105.830;2023-03-11T03:05:24;132.30;;;74.95;;
44434;SDS011;30138;20.964;105.830;2023-03-11T03:10:33;127.63;;;72.40;;
44434;SDS011;30138;20.964;105.830;2023-03-11T03:15:43;123.40;;;68.35;;
44434;SDS011;30138;20.964;105.830;2023-03-11T03:20:51;110.55;;;63.88;;
44434;SDS011;30138;20.964;105.830;2023-03-11T03:25:59;102.68;;;61.72;;
44434;SDS011;30138;20.964;105.830;2023-03-11T03:31:12;112.18;;;63.80;;
44434;SDS011;30138;20.964;105.830;2023-03-11T03:36:20;102.65;;;60.75;;
44434;SDS011;30138;20.964;105.830;2023-03-11T03:41:36;96.93;;;56.75;;
44434;SDS011;30138;20.964;105.830;2023-03-11T03:46:47;100.43;;;56.92;;
44434;SDS011;30138;20.964;105.830;2023-03-11T03:51:54;107.18;;;59.10;;
44434;SDS011;30138;20.964;105.830;2023-03-11T03:57:05;107.57;;;58.08;;
44434;SDS011;30138;20.964;105.830;2023-03-11T04:02:21;103.70;;;57.30;;
44434;SDS011;30138;20.964;105.830;2023-03-11T04:12:40;87.00;;;49.40;;
44434;SDS011;30138;20.964;105.830;2023-03-11T04:17:51;82.97;;;49.25;;
44434;SDS011;30138;20.964;105.830;2023-03-11T04:22:59;89.83;;;50.10;;
44434;SDS011;30138;20.964;105.830;2023-03-11T04:28:14;80.63;;;49.80;;
44434;SDS011;30138;20.964;105.830;2023-03-11T04:33:25;90.43;;;51.50;;
44434;SDS011;30138;20.964;105.830;2023-03-11T04:38:33;90.90;;;52.40;;
44434;SDS011;30138;20.964;105.830;2023-03-11T04:43:44;105.03;;;59.23;;
44434;SDS011;30138;20.964;105.830;2023-03-11T04:48:55;110.22;;;62.20;;
44434;SDS011;30138;20.964;105.830;2023-03-11T04:54:03;113.63;;;69.27;;
44434;SDS011;30138;20.964;105.830;2023-03-11T04:59:11;131.45;;;74.03;;
44434;SDS011;30138;20.964;105.830;2023-03-11T05:04:21;122.82;;;75.75;;
44434;SDS011;30138;20.964;105.830;2023-03-11T05:09:30;128.32;;;82.70;;
44434;SDS011;30138;20.964;105.830;2023-03-11T05:14:39;136.13;;;79.75;;
44434;SDS011;30138;20.964;105.830;2023-03-11T05:19:51;133.25;;;80.00;;
44434;SDS011;30138;20.964;105.830;2023-03-11T05:25:05;142.68;;;83.00;;
44434;SDS011;30138;20.964;105.830;2023-03-11T05:35:25;177.63;;;94.38;;
44434;SDS011;30138;20.964;105.830;2023-03-11T05:40:34;181.33;;;94.00;;
44434;SDS011;30138;20.964;105.830;2023-03-11T05:45:42;148.50;;;84.47;;
44434;SDS011;30138;20.964;105.830;2023-03-11T05:50:54;146.45;;;81.45;;
44434;SDS011;30138;20.964;105.830;2023-03-11T05:56:03;141.55;;;76.78;;
44434;SDS011;30138;20.964;105.830;2023-03-11T06:01:11;124.55;;;76.85;;
44434;SDS011;30138;20.964;105.830;2023-03-11T06:06:22;130.30;;;78.03;;
44434;SDS011;30138;20.964;105.830;2023-03-11T06:11:31;141.60;;;81.50;;
44434;SDS011;30138;20.964;105.830;2023-03-11T06:16:38;122.32;;;77.15;;
44434;SDS011;30138;20.964;105.830;2023-03-11T06:21:49;107.70;;;67.05;;
44434;SDS011;30138;20.964;105.830;2023-03-11T06:26:58;97.33;;;56.77;;
44434;SDS011;30138;20.964;105.830;2023-03-11T06:32:07;95.22;;;55.00;;
44434;SDS011;30138;20.964;105.830;2023-03-11T06:37:19;85.97;;;53.25;;
44434;SDS011;30138;20.964;105.830;2023-03-11T06:42:26;78.20;;;49.67;;
44434;SDS011;30138;20.964;105.830;2023-03-11T06:47:35;82.55;;;50.75;;
44434;SDS011;30138;20.964;105.830;2023-03-11T06:52:46;78.25;;;51.25;;
44434;SDS011;30138;20.964;105.830;2023-03-11T06:57:54;81.13;;;51.90;;
44434;SDS011;30138;20.964;105.830;2023-03-11T07:03:03;78.30;;;51.35;;
44434;SDS011;30138;20.964;105.830;2023-03-11T07:08:13;79.55;;;51.30;;
44434;SDS011;30138;20.964;105.830;2023-03-11T07:13:22;77.72;;;51.42;;
44434;SDS011;30138;20.964;105.830;2023-03-11T07:18:31;81.30;;;52.13;;
44434;SDS011;30138;20.964;105.830;2023-03-11T07:23:43;81.53;;;51.85;;
44434;SDS011;30138;20.964;105.830;2023-03-11T07:28:50;77.60;;;53.35;;
44434;SDS011;30138;20.964;105.830;2023-03-11T07:33:59;77.13;;;52.42;;
44434;SDS011;30138;20.964;105.830;2023-03-11T07:39:14;78.75;;;53.47;;
44434;SDS011;30138;20.964;105.830;2023-03-11T07:44:22;71.17;;;52.40;;
44434;SDS011;30138;20.964;105.830;2023-03-11T07:49:29;82.38;;;53.95;;
44434;SDS011;30138;20.964;105.830;2023-03-11T07:54:39;87.57;;;56.17;;
44434;SDS011;30138;20.964;105.830;2023-03-11T07:59:49;87.68;;;56.38;;
44434;SDS011;30138;20.964;105.830;2023-03-11T08:04:59;88.17;;;58.90;;
44434;SDS011;30138;20.964;105.830;2023-03-11T08:10:09;89.57;;;58.95;;
44434;SDS011;30138;20.964;105.830;2023-03-11T08:15:19;102.38;;;61.38;;
44434;SDS011;30138;20.964;105.830;2023-03-11T08:20:25;99.50;;;60.42;;
44434;SDS011;30138;20.964;105.830;2023-03-11T08:25:34;96.30;;;60.65;;
44434;SDS011;30138;20.964;105.830;2023-03-11T08:30:45;93.22;;;60.05;;
44434;SDS011;30138;20.964;105.830;2023-03-11T08:35:54;99.88;;;61.55;;
44434;SDS011;30138;20.964;105.830;2023-03-11T08:41:06;108.07;;;63.53;;
44434;SDS011;30138;20.964;105.830;2023-03-11T08:46:21;102.65;;;65.88;;
44434;SDS011;30138;20.964;105.830;2023-03-11T08:51:32;98.28;;;63.00;;
44434;SDS011;30138;20.964;105.830;2023-03-11T08:56:42;101.22;;;64.03;;
44434;SDS011;30138;20.964;105.830;2023-03-11T09:01:51;97.93;;;64.65;;
44434;SDS011;30138;20.964;105.830;2023-03-11T09:07:00;101.35;;;65.60;;
44434;SDS011;30138;20.964;105.830;2023-03-11T09:12:12;98.72;;;63.78;;
44434;SDS011;30138;20.964;105.830;2023-03-11T09:17:21;99.63;;;66.75;;
44434;SDS011;30138;20.964;105.830;2023-03-11T09:22:31;101.07;;;68.07;;
44434;SDS011;30138;20.964;105.830;2023-03-11T09:27:44;104.82;;;67.35;;
44434;SDS011;30138;20.964;105.830;2023-03-11T09:32:51;101.82;;;67.57;;
44434;SDS011;30138;20.964;105.830;2023-03-11T09:37:57;106.97;;;69.78;;
44434;SDS011;30138;20.964;105.830;2023-03-11T09:43:09;112.35;;;78.18;;
44434;SDS011;30138;20.964;105.830;2023-03-11T09:48:31;127.13;;;85.63;;
44434;SDS011;30138;20.964;105.830;2023-03-11T09:53:46;129.32;;;88.18;;
44434;SDS011;30138;20.964;105.830;2023-03-11T09:59:01;134.40;;;92.47;;
44434;SDS011;30138;20.964;105.830;2023-03-11T10:04:12;141.27;;;93.05;;
44434;SDS011;30138;20.964;105.830;2023-03-11T10:09:32;142.98;;;92.50;;
44434;SDS011;30138;20.964;105.830;2023-03-11T10:20:45;143.98;;;93.38;;
44434;SDS011;30138;20.964;105.830;2023-03-11T10:26:16;129.87;;;91.10;;
44434;SDS011;30138;20.964;105.830;2023-03-11T10:31:36;139.38;;;94.60;;
44434;SDS011;30138;20.964;105.830;2023-03-11T10:36:50;134.10;;;91.53;;
44434;SDS011;30138;20.964;105.830;2023-03-11T10:42:04;136.38;;;91.97;;
44434;SDS011;30138;20.964;105.830;2023-03-11T10:47:19;129.43;;;89.53;;
44434;SDS011;30138;20.964;105.830;2023-03-11T10:52:27;129.17;;;90.97;;
44434;SDS011;30138;20.964;105.830;2023-03-11T10:57:34;130.77;;;91.72;;
44434;SDS011;30138;20.964;105.830;2023-03-11T11:02:48;126.53;;;88.10;;
44434;SDS011;30138;20.964;105.830;2023-03-11T11:08:02;129.18;;;84.90;;
44434;SDS011;30138;20.964;105.830;2023-03-11T11:13:18;123.70;;;84.53;;
44434;SDS011;30138;20.964;105.830;2023-03-11T11:18:28;119.60;;;81.18;;
44434;SDS011;30138;20.964;105.830;2023-03-11T11:23:40;116.75;;;80.25;;
44434;SDS011;30138;20.964;105.830;2023-03-11T11:29:03;105.78;;;76.43;;
44434;SDS011;30138;20.964;105.830;2023-03-11T11:34:26;112.78;;;76.05;;
44434;SDS011;30138;20.964;105.830;2023-03-11T11:39:38;111.70;;;76.63;;
44434;SDS011;30138;20.964;105.830;2023-03-11T11:44:56;110.35;;;77.00;;
44434;SDS011;30138;20.964;105.830;2023-03-11T11:50:13;110.20;;;76.82;;
44434;SDS011;30138;20.964;105.830;2023-03-11T11:55:29;121.93;;;79.80;;
44434;SDS011;30138;20.964;105.830;2023-03-11T12:00:44;127.97;;;81.28;;
44434;SDS011;30138;20.964;105.830;2023-03-11T12:06:09;122.07;;;81.28;;
44434;SDS011;30138;20.964;105.830;2023-03-11T12:11:30;130.95;;;84.82;;
44434;SDS011;30138;20.964;105.830;2023-03-11T12:16:47;127.82;;;86.70;;
44434;SDS011;30138;20.964;105.830;2023-03-11T12:22:14;139.30;;;91.72;;
44434;SDS011;30138;20.964;105.830;2023-03-11T12:27:52;145.82;;;92.43;;
44434;SDS011;30138;20.964;105.830;2023-03-11T12:33:10;145.60;;;93.57;;
44434;SDS011;30138;20.964;105.830;2023-03-11T12:38:27;144.35;;;97.65;;
44434;SDS011;30138;20.964;105.830;2023-03-11T12:49:29;149.25;;;101.45;;
44434;SDS011;30138;20.964;105.830;2023-03-11T12:54:40;157.27;;;103.55;;
44434;SDS011;30138;20.964;105.830;2023-03-11T13:05:49;167.30;;;108.47;;
44434;SDS011;30138;20.964;105.830;2023-03-11T13:11:40;169.75;;;109.95;;
44434;SDS011;30138;20.964;105.830;2023-03-11T13:16:52;167.93;;;111.82;;
44434;SDS011;30138;20.964;105.830;2023-03-11T13:22:05;178.70;;;112.40;;
44434;SDS011;30138;20.964;105.830;2023-03-11T13:28:26;177.23;;;112.95;;
44434;SDS011;30138;20.964;105.830;2023-03-11T13:33:57;168.82;;;109.15;;
44434;SDS011;30138;20.964;105.830;2023-03-11T13:45:30;142.98;;;95.68;;
44434;SDS011;30138;20.964;105.830;2023-03-11T13:50:42;138.27;;;93.50;;
44434;SDS011;30138;20.964;105.830;2023-03-11T13:56:03;132.43;;;91.28;;
44434;SDS011;30138;20.964;105.830;2023-03-11T14:01:29;138.98;;;90.78;;
44434;SDS011;30138;20.964;105.830;2023-03-11T14:07:10;131.68;;;89.18;;
44434;SDS011;30138;20.964;105.830;2023-03-11T14:12:23;121.57;;;84.17;;
44434;SDS011;30138;20.964;105.830;2023-03-11T14:17:52;129.23;;;85.15;;
44434;SDS011;30138;20.964;105.830;2023-03-11T14:23:46;121.15;;;83.57;;
44434;SDS011;30138;20.964;105.830;2023-03-11T14:29:08;121.70;;;81.90;;
44434;SDS011;30138;20.964;105.830;2023-03-11T14:34:47;129.18;;;83.65;;
44434;SDS011;30138;20.964;105.830;2023-03-11T14:40:17;129.15;;;82.25;;
44434;SDS011;30138;20.964;105.830;2023-03-11T14:45:36;126.97;;;83.95;;
44434;SDS011;30138;20.964;105.830;2023-03-11T14:51:00;131.30;;;84.55;;
44434;SDS011;30138;20.964;105.830;2023-03-11T14:56:14;123.35;;;86.38;;
44434;SDS011;30138;20.964;105.830;2023-03-11T15:01:29;133.27;;;89.03;;
44434;SDS011;30138;20.964;105.830;2023-03-11T15:06:49;142.38;;;88.97;;
44434;SDS011;30138;20.964;105.830;2023-03-11T15:12:30;142.55;;;89.63;;
44434;SDS011;30138;20.964;105.830;2023-03-11T15:18:01;138.32;;;91.28;;
44434;SDS011;30138;20.964;105.830;2023-03-11T15:23:26;142.05;;;88.28;;
44434;SDS011;30138;20.964;105.830;2023-03-11T15:28:54;145.25;;;92.15;;
44434;SDS011;30138;20.964;105.830;2023-03-11T15:34:08;140.10;;;90.50;;
44434;SDS011;30138;20.964;105.830;2023-03-11T15:39:48;141.88;;;94.90;;
44434;SDS011;30138;20.964;105.830;2023-03-11T15:45:03;139.00;;;92.47;;
44434;SDS011;30138;20.964;105.830;2023-03-11T15:50:22;135.77;;;90.13;;
44434;SDS011;30138;20.964;105.830;2023-03-11T15:55:33;152.77;;;95.73;;
44434;SDS011;30138;20.964;105.830;2023-03-11T16:00:46;144.70;;;95.80;;
44434;SDS011;30138;20.964;105.830;2023-03-11T16:05:57;149.47;;;97.27;;
44434;SDS011;30138;20.964;105.830;2023-03-11T16:11:12;149.25;;;98.75;;
44434;SDS011;30138;20.964;105.830;2023-03-11T16:16:21;147.50;;;100.32;;
44434;SDS011;30138;20.964;105.830;2023-03-11T16:21:34;156.85;;;102.75;;
44434;SDS011;30138;20.964;105.830;2023-03-11T16:26:51;167.73;;;105.60;;
44434;SDS011;30138;20.964;105.830;2023-03-11T16:31:59;164.87;;;106.77;;
44434;SDS011;30138;20.964;105.830;2023-03-11T16:37:09;165.80;;;104.45;;
44434;SDS011;30138;20.964;105.830;2023-03-11T16:42:24;162.13;;;107.10;;
44434;SDS011;30138;20.964;105.830;2023-03-11T16:47:43;172.48;;;106.28;;
44434;SDS011;30138;20.964;105.830;2023-03-11T16:54:48;168.30;;;108.15;;
44434;SDS011;30138;20.964;105.830;2023-03-11T16:59:54;171.10;;;106.55;;
44434;SDS011;30138;20.964;105.830;2023-03-11T17:05:05;169.55;;;108.65;;
44434;SDS011;30138;20.964;105.830;2023-03-11T17:10:16;173.48;;;109.50;;
44434;SDS011;30138;20.964;105.830;2023-03-11T17:15:28;173.50;;;110.53;;
44434;SDS011;30138;20.964;105.830;2023-03-11T17:20:38;173.57;;;108.70;;
44434;SDS011;30138;20.964;105.830;2023-03-11T17:25:46;177.35;;;110.18;;
44434;SDS011;30138;20.964;105.830;2023-03-11T17:30:56;174.23;;;107.65;;
44434;SDS011;30138;20.964;105.830;2023-03-11T17:36:04;165.93;;;106.60;;
44434;SDS011;30138;20.964;105.830;2023-03-11T17:41:13;166.27;;;105.45;;
44434;SDS011;30138;20.964;105.830;2023-03-11T17:46:25;154.30;;;100.25;;
44434;SDS011;30138;20.964;105.830;2023-03-11T17:51:32;154.27;;;99.72;;
44434;SDS011;30138;20.964;105.830;2023-03-11T17:56:40;151.55;;;96.28;;
44434;SDS011;30138;20.964;105.830;2023-03-11T18:01:49;146.25;;;94.60;;
44434;SDS011;30138;20.964;105.830;2023-03-11T18:06:57;145.55;;;92.68;;
44434;SDS011;30138;20.964;105.830;2023-03-11T18:12:04;137.38;;;91.97;;
44434;SDS011;30138;20.964;105.830;2023-03-11T18:17:13;144.80;;;92.35;;
44434;SDS011;30138;20.964;105.830;2023-03-11T18:22:21;141.25;;;89.38;;
44434;SDS011;30138;20.964;105.830;2023-03-11T18:27:28;137.45;;;88.47;;
44434;SDS011;30138;20.964;105.830;2023-03-11T18:32:37;143.48;;;86.72;;
44434;SDS011;30138;20.964;105.830;2023-03-11T18:37:46;127.70;;;83.10;;
44434;SDS011;30138;20.964;105.830;2023-03-11T18:42:52;125.45;;;83.35;;
44434;SDS011;30138;20.964;105.830;2023-03-11T18:48:01;130.80;;;83.20;;
44434;SDS011;30138;20.964;105.830;2023-03-11T18:53:08;133.30;;;82.95;;
44434;SDS011;30138;20.964;105.830;2023-03-11T18:58:15;131.23;;;82.57;;
44434;SDS011;30138;20.964;105.830;2023-03-11T19:03:24;124.70;;;80.93;;
44434;SDS011;30138;20.964;105.830;2023-03-11T19:08:30;125.07;;;82.55;;
44434;SDS011;30138;20.964;105.830;2023-03-11T19:13:37;129.13;;;83.55;;
44434;SDS011;30138;20.964;105.830;2023-03-11T19:18:46;134.63;;;83.25;;
44434;SDS011;30138;20.964;105.830;2023-03-11T19:23:55;132.77;;;81.63;;
44434;SDS011;30138;20.964;105.830;2023-03-11T19:29:02;131.45;;;83.82;;
44434;SDS011;30138;20.964;105.830;2023-03-11T19:34:10;130.82;;;85.60;;
44434;SDS011;30138;20.964;105.830;2023-03-11T19:39:17;135.45;;;86.22;;
44434;SDS011;30138;20.964;105.830;2023-03-11T19:44:24;129.55;;;83.15;;
44434;SDS011;30138;20.964;105.830;2023-03-11T19:49:33;135.43;;;85.85;;
44434;SDS011;30138;20.964;105.830;2023-03-11T19:54:40;125.65;;;83.05;;
44434;SDS011;30138;20.964;105.830;2023-03-11T19:59:46;130.40;;;86.50;;
44434;SDS011;30138;20.964;105.830;2023-03-11T20:04:56;137.10;;;85.75;;
44434;SDS011;30138;20.964;105.830;2023-03-11T20:10:03;131.10;;;83.13;;
44434;SDS011;30138;20.964;105.830;2023-03-11T20:15:11;124.20;;;82.88;;
44434;SDS011;30138;20.964;105.830;2023-03-11T20:20:21;129.18;;;82.95;;
44434;SDS011;30138;20.964;105.830;2023-03-11T20:25:29;129.77;;;82.90;;
44434;SDS011;30138;20.964;105.830;2023-03-11T20:30:36;130.43;;;85.68;;
44434;SDS011;30138;20.964;105.830;2023-03-11T20:35:45;130.20;;;83.00;;
44434;SDS011;30138;20.964;105.830;2023-03-11T20:40:54;127.40;;;81.40;;
44434;SDS011;30138;20.964;105.830;2023-03-11T20:46:01;121.95;;;80.35;;
44434;SDS011;30138;20.964;105.830;2023-03-11T20:51:11;128.65;;;81.75;;
44434;SDS011;30138;20.964;105.830;2023-03-11T20:56:21;127.80;;;81.15;;
44434;SDS011;30138;20.964;105.830;2023-03-11T21:01:32;127.90;;;80.10;;
44434;SDS011;30138;20.964;105.830;2023-03-11T21:06:41;128.52;;;80.38;;
44434;SDS011;30138;20.964;105.830;2023-03-11T21:11:50;121.70;;;78.78;;
44434;SDS011;30138;20.964;105.830;2023-03-11T21:16:56;127.63;;;82.05;;
44434;SDS011;30138;20.964;105.830;2023-03-11T21:22:05;129.02;;;79.55;;
44434;SDS011;30138;20.964;105.830;2023-03-11T21:27:12;137.60;;;79.72;;
44434;SDS011;30138;20.964;105.830;2023-03-11T21:32:21;126.90;;;80.18;;
44434;SDS011;30138;20.964;105.830;2023-03-11T21:37:31;125.35;;;80.30;;
44434;SDS011;30138;20.964;105.830;2023-03-11T21:42:40;129.38;;;82.32;;
44434;SDS011;30138;20.964;105.830;2023-03-11T21:47:46;131.45;;;81.35;;
44434;SDS011;30138;20.964;105.830;2023-03-11T21:52:56;129.18;;;80.15;;
44434;SDS011;30138;20.964;105.830;2023-03-11T21:58:03;129.55;;;81.18;;
44434;SDS011;30138;20.964;105.830;2023-03-11T22:03:10;125.72;;;79.95;;
44434;SDS011;30138;20.964;105.830;2023-03-11T22:08:18;131.30;;;79.50;;
44434;SDS011;30138;20.964;105.830;2023-03-11T22:13:25;129.55;;;78.35;;
44434;SDS011;30138;20.964;105.830;2023-03-11T22:18:32;138.02;;;79.32;;
44434;SDS011;30138;20.964;105.830;2023-03-11T22:23:41;122.72;;;80.88;;
44434;SDS011;30138;20.964;105.830;2023-03-11T22:28:48;127.20;;;80.00;;
44434;SDS011;30138;20.964;105.830;2023-03-11T22:33:56;129.02;;;78.65;;
44434;SDS011;30138;20.964;105.830;2023-03-11T22:39:05;130.73;;;78.95;;
44434;SDS011;30138;20.964;105.830;2023-03-11T22:44:11;126.10;;;78.03;;
44434;SDS011;30138;20.964;105.830;2023-03-11T22:49:18;124.43;;;78.25;;
44434;SDS011;30138;20.964;105.830;2023-03-11T22:54:28;125.93;;;78.63;;
44434;SDS011;30138;20.964;105.830;2023-03-11T22:59:36;123.25;;;79.40;;
44434;SDS011;30138;20.964;105.830;2023-03-11T23:04:43;118.38;;;77.95;;
44434;SDS011;30138;20.964;105.830;2023-03-11T23:09:52;117.78;;;77.32;;
44434;SDS011;30138;20.964;105.830;2023-03-11T23:14:59;116.90;;;78.70;;
44434;SDS011;30138;20.964;105.830;2023-03-11T23:20:09;119.28;;;78.60;;
44434;SDS011;30138;20.964;105.830;2023-03-11T23:25:20;111.18;;;76.75;;
44434;SDS011;30138;20.964;105.830;2023-03-11T23:30:28;117.22;;;78.40;;
44434;SDS011;30138;20.964;105.830;2023-03-11T23:35:38;117.82;;;77.90;;
44434;SDS011;30138;20.964;105.830;2023-03-11T23:40:49;114.00;;;77.50;;
44434;SDS011;30138;20.964;105.830;2023-03-11T23:45:57;116.75;;;79.07;;
44434;SDS011;30138;20.964;105.830;2023-03-11T23:51:04;106.45;;;76.65;;
44434;SDS011;30138;20.964;105.830;2023-03-11T23:56:13;113.15;;;77.80;;
